Stringtown, Iowa
Current Conditions -  °F | °C
As of 7:35 AM on Thursday 30 Oct 2014 (Local Time) from KCSQ Reporting Station
Broken Clouds Broken Clouds  
Wind Chill: 34°   Ceiling: 10000
Heat Index: 39°   Visibility: 10mi
Dew Point: 36°   Wind: 7mph
Humidity: 87%   Direction: 40°NE
Pressure: 30.02"   Gusts: NA
Location:  40.8856°N, 94.5654°W
Report Text: KCSQ 301235Z AUTO 04006KT 10SM BKN100 04/02 A3002 RMK AO2
Loading
Personal Weather Stations






























Interactive Weather Map New forecast layout! Learn more

10-Day Weather Forecast

Advertisements
Track Severe Weather on mobile